sensor_id;sensor_type;location;lat;lon;timestamp;pressure;altitude;pressure_sealevel;temperature;humidity
70304;BME280;57712;48.752;11.348;2024-02-26T00:02:18;95855.84;;;3.96;100.00
70304;BME280;57712;48.752;11.348;2024-02-26T00:04:45;95847.84;;;3.89;100.00
70304;BME280;57712;48.752;11.348;2024-02-26T00:07:12;95850.97;;;3.88;100.00
70304;BME280;57712;48.752;11.348;2024-02-26T00:09:40;95850.69;;;3.82;100.00
70304;BME280;57712;48.752;11.348;2024-02-26T00:12:06;95851.16;;;3.77;100.00
70304;BME280;57712;48.752;11.348;2024-02-26T00:14:33;95844.81;;;3.64;100.00
70304;BME280;57712;48.752;11.348;2024-02-26T00:17:00;95845.19;;;3.66;100.00
70304;BME280;57712;48.752;11.348;2024-02-26T00:19:35;95846.00;;;3.63;100.00
70304;BME280;57712;48.752;11.348;2024-02-26T00:22:03;95847.31;;;3.55;100.00
70304;BME280;57712;48.752;11.348;2024-02-26T00:24:29;95840.41;;;3.50;100.00
70304;BME280;57712;48.752;11.348;2024-02-26T00:26:56;95850.13;;;3.47;100.00
70304;BME280;57712;48.752;11.348;2024-02-26T00:29:23;95852.06;;;3.47;100.00
70304;BME280;57712;48.752;11.348;2024-02-26T00:31:49;95848.72;;;3.39;100.00
70304;BME280;57712;48.752;11.348;2024-02-26T00:34:16;95856.50;;;3.37;100.00
70304;BME280;57712;48.752;11.348;2024-02-26T00:36:48;95848.47;;;3.30;100.00
70304;BME280;57712;48.752;11.348;2024-02-26T00:39:14;95854.31;;;3.29;100.00
70304;BME280;57712;48.752;11.348;2024-02-26T00:41:41;95845.53;;;3.21;100.00
70304;BME280;57712;48.752;11.348;2024-02-26T00:44:08;95845.59;;;3.17;100.00
70304;BME280;57712;48.752;11.348;2024-02-26T00:46:34;95836.03;;;3.13;100.00
70304;BME280;57712;48.752;11.348;2024-02-26T00:49:01;95841.88;;;3.08;100.00
70304;BME280;57712;48.752;11.348;2024-02-26T00:51:28;95834.59;;;3.05;100.00
70304;BME280;57712;48.752;11.348;2024-02-26T00:53:55;95839.28;;;3.01;100.00
70304;BME280;57712;48.752;11.348;2024-02-26T00:56:23;95830.81;;;2.99;100.00
70304;BME280;57712;48.752;11.348;2024-02-26T00:58:50;95832.47;;;2.93;100.00
70304;BME280;57712;48.752;11.348;2024-02-26T01:01:17;95840.88;;;2.98;100.00
70304;BME280;57712;48.752;11.348;2024-02-26T01:03:44;95839.75;;;2.96;100.00
70304;BME280;57712;48.752;11.348;2024-02-26T01:06:11;95838.25;;;2.91;100.00
70304;BME280;57712;48.752;11.348;2024-02-26T01:08:38;95835.47;;;2.98;100.00
70304;BME280;57712;48.752;11.348;2024-02-26T01:11:06;95833.94;;;2.97;100.00
70304;BME280;57712;48.752;11.348;2024-02-26T01:13:34;95830.00;;;3.02;100.00
70304;BME280;57712;48.752;11.348;2024-02-26T01:16:00;95839.19;;;3.08;100.00
70304;BME280;57712;48.752;11.348;2024-02-26T01:18:28;95839.84;;;3.15;100.00
70304;BME280;57712;48.752;11.348;2024-02-26T01:20:55;95841.38;;;3.16;100.00
70304;BME280;57712;48.752;11.348;2024-02-26T01:23:21;95842.81;;;3.21;100.00
70304;BME280;57712;48.752;11.348;2024-02-26T01:25:48;95837.91;;;3.16;100.00
70304;BME280;57712;48.752;11.348;2024-02-26T01:28:15;95841.66;;;3.22;100.00
70304;BME280;57712;48.752;11.348;2024-02-26T01:30:42;95834.19;;;3.30;100.00
70304;BME280;57712;48.752;11.348;2024-02-26T01:33:09;95838.84;;;3.29;100.00
70304;BME280;57712;48.752;11.348;2024-02-26T01:35:37;95843.41;;;3.32;100.00
70304;BME280;57712;48.752;11.348;2024-02-26T01:38:04;95842.66;;;3.32;100.00
70304;BME280;57712;48.752;11.348;2024-02-26T01:40:31;95839.66;;;3.26;100.00
70304;BME280;57712;48.752;11.348;2024-02-26T01:42:59;95838.84;;;3.29;100.00
70304;BME280;57712;48.752;11.348;2024-02-26T01:45:26;95837.38;;;3.25;100.00
70304;BME280;57712;48.752;11.348;2024-02-26T01:47:54;95845.06;;;3.26;100.00
70304;BME280;57712;48.752;11.348;2024-02-26T01:50:22;95839.66;;;3.26;100.00
70304;BME280;57712;48.752;11.348;2024-02-26T01:52:50;95830.81;;;3.22;100.00
70304;BME280;57712;48.752;11.348;2024-02-26T01:55:18;95821.41;;;3.30;100.00
70304;BME280;57712;48.752;11.348;2024-02-26T01:57:45;95823.28;;;3.33;100.00
70304;BME280;57712;48.752;11.348;2024-02-26T02:00:14;95825.41;;;3.22;100.00
70304;BME280;57712;48.752;11.348;2024-02-26T02:02:43;95810.25;;;3.28;100.00
70304;BME280;57712;48.752;11.348;2024-02-26T02:05:16;95812.13;;;3.31;100.00
70304;BME280;57712;48.752;11.348;2024-02-26T02:07:44;95827.06;;;3.39;100.00
70304;BME280;57712;48.752;11.348;2024-02-26T02:10:12;95813.94;;;3.38;100.00
70304;BME280;57712;48.752;11.348;2024-02-26T02:12:39;95816.25;;;3.39;100.00
70304;BME280;57712;48.752;11.348;2024-02-26T02:15:07;95819.06;;;3.32;100.00
70304;BME280;57712;48.752;11.348;2024-02-26T02:17:34;95809.66;;;3.40;100.00
70304;BME280;57712;48.752;11.348;2024-02-26T02:20:00;95813.47;;;3.43;100.00
70304;BME280;57712;48.752;11.348;2024-02-26T02:22:28;95815.63;;;3.52;100.00
70304;BME280;57712;48.752;11.348;2024-02-26T02:24:54;95807.88;;;3.54;100.00
70304;BME280;57712;48.752;11.348;2024-02-26T02:27:21;95800.50;;;3.54;100.00
70304;BME280;57712;48.752;11.348;2024-02-26T02:29:48;95800.81;;;3.60;100.00
70304;BME280;57712;48.752;11.348;2024-02-26T02:32:17;95795.75;;;3.62;100.00
70304;BME280;57712;48.752;11.348;2024-02-26T02:34:44;95801.88;;;3.66;100.00
70304;BME280;57712;48.752;11.348;2024-02-26T02:37:11;95799.41;;;3.52;100.00
70304;BME280;57712;48.752;11.348;2024-02-26T02:39:38;95802.41;;;3.57;100.00
70304;BME280;57712;48.752;11.348;2024-02-26T02:42:04;95791.53;;;3.81;100.00
70304;BME280;57712;48.752;11.348;2024-02-26T02:44:31;95793.03;;;3.82;100.00
70304;BME280;57712;48.752;11.348;2024-02-26T02:46:58;95798.38;;;3.85;100.00
70304;BME280;57712;48.752;11.348;2024-02-26T02:49:25;95801.59;;;3.80;100.00
70304;BME280;57712;48.752;11.348;2024-02-26T02:51:52;95809.50;;;3.71;100.00
70304;BME280;57712;48.752;11.348;2024-02-26T02:54:20;95803.41;;;3.67;100.00
70304;BME280;57712;48.752;11.348;2024-02-26T02:56:47;95796.50;;;3.82;100.00
70304;BME280;57712;48.752;11.348;2024-02-26T02:59:14;95805.59;;;3.72;100.00
70304;BME280;57712;48.752;11.348;2024-02-26T03:01:41;95804.28;;;3.60;100.00
70304;BME280;57712;48.752;11.348;2024-02-26T03:04:08;95800.91;;;3.76;100.00
70304;BME280;57712;48.752;11.348;2024-02-26T03:06:34;95792.41;;;3.74;100.00
70304;BME280;57712;48.752;11.348;2024-02-26T03:09:01;95797.47;;;3.72;100.00
70304;BME280;57712;48.752;11.348;2024-02-26T03:11:28;95793.53;;;3.76;100.00
70304;BME280;57712;48.752;11.348;2024-02-26T03:13:55;95782.09;;;3.89;100.00
70304;BME280;57712;48.752;11.348;2024-02-26T03:16:22;95788.38;;;3.82;100.00
70304;BME280;57712;48.752;11.348;2024-02-26T03:18:48;95779.94;;;3.80;100.00
70304;BME280;57712;48.752;11.348;2024-02-26T03:21:15;95786.59;;;3.95;100.00
70304;BME280;57712;48.752;11.348;2024-02-26T03:23:42;95776.25;;;3.90;100.00
70304;BME280;57712;48.752;11.348;2024-02-26T03:26:09;95791.19;;;3.98;100.00
70304;BME280;57712;48.752;11.348;2024-02-26T03:28:40;95786.66;;;4.12;100.00
70304;BME280;57712;48.752;11.348;2024-02-26T03:31:07;95793.59;;;4.13;100.00
70304;BME280;57712;48.752;11.348;2024-02-26T03:33:34;95785.13;;;4.11;100.00
70304;BME280;57712;48.752;11.348;2024-02-26T03:36:01;95779.19;;;4.16;100.00
70304;BME280;57712;48.752;11.348;2024-02-26T03:38:29;95785.88;;;4.11;100.00
70304;BME280;57712;48.752;11.348;2024-02-26T03:40:56;95786.50;;;4.19;100.00
70304;BME280;57712;48.752;11.348;2024-02-26T03:43:23;95801.50;;;4.23;100.00
70304;BME280;57712;48.752;11.348;2024-02-26T03:45:50;95778.97;;;4.26;100.00
70304;BME280;57712;48.752;11.348;2024-02-26T03:48:17;95796.00;;;4.27;100.00
70304;BME280;57712;48.752;11.348;2024-02-26T03:50:44;95786.88;;;4.37;100.00
70304;BME280;57712;48.752;11.348;2024-02-26T03:53:10;95787.41;;;4.32;100.00
70304;BME280;57712;48.752;11.348;2024-02-26T03:55:40;95784.16;;;4.21;100.00
70304;BME280;57712;48.752;11.348;2024-02-26T03:58:08;95783.84;;;4.15;100.00
70304;BME280;57712;48.752;11.348;2024-02-26T04:00:36;95786.16;;;4.17;100.00
70304;BME280;57712;48.752;11.348;2024-02-26T04:03:04;95785.34;;;4.20;100.00
70304;BME280;57712;48.752;11.348;2024-02-26T04:05:30;95782.63;;;4.20;100.00
70304;BME280;57712;48.752;11.348;2024-02-26T04:07:57;95790.31;;;4.21;100.00
70304;BME280;57712;48.752;11.348;2024-02-26T04:10:24;95788.03;;;4.20;100.00
70304;BME280;57712;48.752;11.348;2024-02-26T04:12:51;95800.53;;;4.33;100.00
70304;BME280;57712;48.752;11.348;2024-02-26T04:15:17;95800.59;;;4.30;100.00
70304;BME280;57712;48.752;11.348;2024-02-26T04:17:44;95799.69;;;4.17;100.00
70304;BME280;57712;48.752;11.348;2024-02-26T04:20:14;95796.38;;;4.29;100.00
70304;BME280;57712;48.752;11.348;2024-02-26T04:22:42;95803.75;;;4.28;100.00
70304;BME280;57712;48.752;11.348;2024-02-26T04:25:09;95799.28;;;4.38;100.00
70304;BME280;57712;48.752;11.348;2024-02-26T04:27:36;95803.66;;;4.32;100.00
70304;BME280;57712;48.752;11.348;2024-02-26T04:30:04;95806.38;;;4.32;100.00
70304;BME280;57712;48.752;11.348;2024-02-26T04:32:31;95804.50;;;4.29;100.00
70304;BME280;57712;48.752;11.348;2024-02-26T04:34:57;95813.81;;;4.28;100.00
70304;BME280;57712;48.752;11.348;2024-02-26T04:37:24;95817.47;;;4.38;100.00
70304;BME280;57712;48.752;11.348;2024-02-26T04:39:51;95808.09;;;4.42;100.00
70304;BME280;57712;48.752;11.348;2024-02-26T04:42:18;95811.22;;;4.41;100.00
70304;BME280;57712;48.752;11.348;2024-02-26T04:44:45;95810.13;;;4.38;100.00
70304;BME280;57712;48.752;11.348;2024-02-26T04:47:11;95804.94;;;4.08;100.00
70304;BME280;57712;48.752;11.348;2024-02-26T04:49:39;95806.50;;;4.25;100.00
70304;BME280;57712;48.752;11.348;2024-02-26T04:52:06;95814.81;;;4.18;100.00
70304;BME280;57712;48.752;11.348;2024-02-26T04:54:33;95818.66;;;4.17;100.00
70304;BME280;57712;48.752;11.348;2024-02-26T04:57:00;95824.09;;;4.17;100.00
70304;BME280;57712;48.752;11.348;2024-02-26T04:59:27;95825.09;;;4.07;100.00
70304;BME280;57712;48.752;11.348;2024-02-26T05:01:53;95825.63;;;4.18;100.00
70304;BME280;57712;48.752;11.348;2024-02-26T05:04:20;95824.59;;;4.12;100.00
70304;BME280;57712;48.752;11.348;2024-02-26T05:06:48;95831.19;;;4.11;100.00
70304;BME280;57712;48.752;11.348;2024-02-26T05:09:15;95825.56;;;4.21;100.00
70304;BME280;57712;48.752;11.348;2024-02-26T05:11:42;95813.94;;;4.21;100.00
70304;BME280;57712;48.752;11.348;2024-02-26T05:14:09;95816.16;;;4.06;100.00
70304;BME280;57712;48.752;11.348;2024-02-26T05:16:35;95817.22;;;4.12;100.00
70304;BME280;57712;48.752;11.348;2024-02-26T05:19:02;95820.47;;;4.03;100.00
70304;BME280;57712;48.752;11.348;2024-02-26T05:21:30;95812.56;;;4.13;100.00
70304;BME280;57712;48.752;11.348;2024-02-26T05:23:57;95812.66;;;4.09;100.00
70304;BME280;57712;48.752;11.348;2024-02-26T05:26:24;95809.72;;;4.20;100.00
70304;BME280;57712;48.752;11.348;2024-02-26T05:28:51;95807.69;;;4.24;100.00
70304;BME280;57712;48.752;11.348;2024-02-26T05:31:18;95807.00;;;4.20;100.00
70304;BME280;57712;48.752;11.348;2024-02-26T05:33:45;95808.00;;;4.10;100.00
70304;BME280;57712;48.752;11.348;2024-02-26T05:36:18;95803.97;;;4.18;100.00
70304;BME280;57712;48.752;11.348;2024-02-26T05:38:45;95816.25;;;4.22;100.00
70304;BME280;57712;48.752;11.348;2024-02-26T05:41:15;95815.25;;;4.32;100.00
70304;BME280;57712;48.752;11.348;2024-02-26T05:43:42;95823.28;;;4.20;100.00
70304;BME280;57712;48.752;11.348;2024-02-26T05:46:12;95832.41;;;4.26;100.00
70304;BME280;57712;48.752;11.348;2024-02-26T05:48:41;95824.78;;;4.21;100.00
70304;BME280;57712;48.752;11.348;2024-02-26T05:51:09;95839.09;;;4.01;100.00
70304;BME280;57712;48.752;11.348;2024-02-26T05:53:35;95832.78;;;4.28;100.00
70304;BME280;57712;48.752;11.348;2024-02-26T05:56:02;95850.78;;;4.18;100.00
70304;BME280;57712;48.752;11.348;2024-02-26T05:58:29;95850.41;;;4.16;100.00
70304;BME280;57712;48.752;11.348;2024-02-26T06:00:56;95846.72;;;4.26;100.00
70304;BME280;57712;48.752;11.348;2024-02-26T06:03:22;95857.88;;;4.32;100.00
70304;BME280;57712;48.752;11.348;2024-02-26T06:05:51;95854.72;;;4.33;100.00
70304;BME280;57712;48.752;11.348;2024-02-26T06:08:18;95860.22;;;4.30;100.00
70304;BME280;57712;48.752;11.348;2024-02-26T06:10:44;95854.19;;;4.22;100.00
70304;BME280;57712;48.752;11.348;2024-02-26T06:13:12;95852.22;;;4.23;100.00
70304;BME280;57712;48.752;11.348;2024-02-26T06:15:38;95859.13;;;4.08;100.00
70304;BME280;57712;48.752;11.348;2024-02-26T06:18:05;95867.84;;;4.15;100.00
70304;BME280;57712;48.752;11.348;2024-02-26T06:20:32;95875.94;;;4.19;100.00
70304;BME280;57712;48.752;11.348;2024-02-26T06:22:58;95880.66;;;4.15;100.00
70304;BME280;57712;48.752;11.348;2024-02-26T06:25:25;95873.78;;;4.10;100.00
70304;BME280;57712;48.752;11.348;2024-02-26T06:27:52;95874.88;;;4.13;100.00
70304;BME280;57712;48.752;11.348;2024-02-26T06:30:19;95874.41;;;4.18;100.00
70304;BME280;57712;48.752;11.348;2024-02-26T06:32:45;95876.81;;;4.12;100.00
70304;BME280;57712;48.752;11.348;2024-02-26T06:35:12;95883.34;;;4.15;100.00
70304;BME280;57712;48.752;11.348;2024-02-26T06:37:39;95886.06;;;4.15;100.00
70304;BME280;57712;48.752;11.348;2024-02-26T06:40:06;95902.06;;;4.09;100.00
70304;BME280;57712;48.752;11.348;2024-02-26T06:42:33;95902.31;;;4.15;100.00
70304;BME280;57712;48.752;11.348;2024-02-26T06:45:04;95904.91;;;4.22;100.00
70304;BME280;57712;48.752;11.348;2024-02-26T06:47:32;95907.34;;;4.36;100.00
70304;BME280;57712;48.752;11.348;2024-02-26T06:49:59;95901.91;;;4.36;100.00
70304;BME280;57712;48.752;11.348;2024-02-26T06:52:27;95908.84;;;4.37;100.00
70304;BME280;57712;48.752;11.348;2024-02-26T06:54:54;95907.28;;;4.40;100.00
70304;BME280;57712;48.752;11.348;2024-02-26T06:57:22;95902.88;;;4.66;100.00
70304;BME280;57712;48.752;11.348;2024-02-26T06:59:49;95912.97;;;4.65;100.00
70304;BME280;57712;48.752;11.348;2024-02-26T07:02:16;95913.72;;;4.66;100.00
70304;BME280;57712;48.752;11.348;2024-02-26T07:04:46;95918.38;;;4.85;100.00
70304;BME280;57712;48.752;11.348;2024-02-26T07:07:13;95926.31;;;4.76;100.00
70304;BME280;57712;48.752;11.348;2024-02-26T07:09:41;95918.44;;;4.81;100.00
70304;BME280;57712;48.752;11.348;2024-02-26T07:12:10;95911.59;;;4.93;100.00
70304;BME280;57712;48.752;11.348;2024-02-26T07:14:37;95919.47;;;4.87;100.00
70304;BME280;57712;48.752;11.348;2024-02-26T07:17:04;95914.34;;;5.09;100.00
70304;BME280;57712;48.752;11.348;2024-02-26T07:19:30;95911.81;;;5.18;100.00
70304;BME280;57712;48.752;11.348;2024-02-26T07:21:57;95919.72;;;5.13;100.00
70304;BME280;57712;48.752;11.348;2024-02-26T07:24:24;95918.63;;;5.27;100.00
70304;BME280;57712;48.752;11.348;2024-02-26T07:26:51;95914.91;;;5.37;100.00
70304;BME280;57712;48.752;11.348;2024-02-26T07:29:18;95916.50;;;5.34;100.00
70304;BME280;57712;48.752;11.348;2024-02-26T07:31:45;95921.16;;;5.50;100.00
70304;BME280;57712;48.752;11.348;2024-02-26T07:34:12;95928.06;;;5.55;100.00
70304;BME280;57712;48.752;11.348;2024-02-26T07:36:40;95942.47;;;5.51;100.00
70304;BME280;57712;48.752;11.348;2024-02-26T07:39:06;95946.03;;;5.48;100.00
70304;BME280;57712;48.752;11.348;2024-02-26T07:41:33;95940.88;;;5.70;100.00
70304;BME280;57712;48.752;11.348;2024-02-26T07:44:00;95939.69;;;5.88;100.00
70304;BME280;57712;48.752;11.348;2024-02-26T07:46:27;95936.88;;;5.75;100.00
70304;BME280;57712;48.752;11.348;2024-02-26T07:48:53;95945.03;;;5.75;100.00
70304;BME280;57712;48.752;11.348;2024-02-26T07:51:21;95935.28;;;5.45;100.00
70304;BME280;57712;48.752;11.348;2024-02-26T07:53:49;95931.09;;;5.89;100.00
70304;BME280;57712;48.752;11.348;2024-02-26T07:56:16;95935.19;;;5.48;100.00
70304;BME280;57712;48.752;11.348;2024-02-26T07:58:42;95939.59;;;5.59;100.00
70304;BME280;57712;48.752;11.348;2024-02-26T08:01:13;95927.97;;;5.74;100.00
70304;BME280;57712;48.752;11.348;2024-02-26T08:03:43;95925.53;;;5.64;100.00
70304;BME280;57712;48.752;11.348;2024-02-26T08:06:10;95921.00;;;5.57;100.00
70304;BME280;57712;48.752;11.348;2024-02-26T08:08:37;95921.59;;;5.32;100.00
70304;BME280;57712;48.752;11.348;2024-02-26T08:11:04;95907.88;;;5.56;100.00
70304;BME280;57712;48.752;11.348;2024-02-26T08:13:30;95916.50;;;5.50;100.00
70304;BME280;57712;48.752;11.348;2024-02-26T08:15:57;95917.25;;;5.51;100.00
70304;BME280;57712;48.752;11.348;2024-02-26T08:18:25;95913.69;;;5.70;100.00
70304;BME280;57712;48.752;11.348;2024-02-26T08:20:52;95914.41;;;5.91;100.00
70304;BME280;57712;48.752;11.348;2024-02-26T08:23:19;95909.78;;;6.04;100.00
70304;BME280;57712;48.752;11.348;2024-02-26T08:25:45;95913.13;;;6.24;100.00
70304;BME280;57712;48.752;11.348;2024-02-26T08:28:12;95925.56;;;6.25;100.00
70304;BME280;57712;48.752;11.348;2024-02-26T08:30:40;95915.06;;;6.40;100.00
70304;BME280;57712;48.752;11.348;2024-02-26T08:33:07;95920.97;;;6.51;100.00
70304;BME280;57712;48.752;11.348;2024-02-26T08:35:34;95930.28;;;6.79;100.00
70304;BME280;57712;48.752;11.348;2024-02-26T08:38:01;95916.69;;;6.79;100.00
70304;BME280;57712;48.752;11.348;2024-02-26T08:40:28;95916.81;;;6.88;100.00
70304;BME280;57712;48.752;11.348;2024-02-26T08:42:55;95913.41;;;6.84;100.00
70304;BME280;57712;48.752;11.348;2024-02-26T08:45:22;95916.72;;;7.05;100.00
70304;BME280;57712;48.752;11.348;2024-02-26T08:47:51;95912.69;;;7.35;100.00
70304;BME280;57712;48.752;11.348;2024-02-26T08:50:18;95903.78;;;7.21;100.00
70304;BME280;57712;48.752;11.348;2024-02-26T08:52:44;95894.28;;;7.26;100.00
70304;BME280;57712;48.752;11.348;2024-02-26T08:55:16;95908.88;;;7.58;100.00
70304;BME280;57712;48.752;11.348;2024-02-26T08:57:43;95911.38;;;7.39;100.00
70304;BME280;57712;48.752;11.348;2024-02-26T09:00:10;95906.06;;;7.36;100.00
70304;BME280;57712;48.752;11.348;2024-02-26T09:02:37;95909.84;;;7.64;100.00
70304;BME280;57712;48.752;11.348;2024-02-26T09:05:05;95919.91;;;8.01;100.00
70304;BME280;57712;48.752;11.348;2024-02-26T09:07:32;95940.97;;;7.88;100.00
70304;BME280;57712;48.752;11.348;2024-02-26T09:10:00;95950.06;;;8.20;100.00
70304;BME280;57712;48.752;11.348;2024-02-26T09:12:26;95958.13;;;8.36;100.00
70304;BME280;57712;48.752;11.348;2024-02-26T09:14:54;95979.84;;;8.61;100.00
70304;BME280;57712;48.752;11.348;2024-02-26T09:17:23;95978.72;;;8.72;100.00
70304;BME280;57712;48.752;11.348;2024-02-26T09:19:49;95980.13;;;8.76;100.00
70304;BME280;57712;48.752;11.348;2024-02-26T09:22:16;95983.47;;;8.24;100.00
70304;BME280;57712;48.752;11.348;2024-02-26T09:24:44;95990.63;;;8.43;100.00
70304;BME280;57712;48.752;11.348;2024-02-26T09:27:11;95989.38;;;8.57;100.00
70304;BME280;57712;48.752;11.348;2024-02-26T09:29:38;95987.03;;;8.68;100.00
70304;BME280;57712;48.752;11.348;2024-02-26T09:32:04;95994.03;;;8.91;100.00
70304;BME280;57712;48.752;11.348;2024-02-26T09:34:31;95986.59;;;8.70;100.00
70304;BME280;57712;48.752;11.348;2024-02-26T09:36:58;95992.50;;;8.68;100.00
70304;BME280;57712;48.752;11.348;2024-02-26T09:39:38;95993.50;;;8.61;100.00
70304;BME280;57712;48.752;11.348;2024-02-26T09:42:05;95997.69;;;8.53;100.00
70304;BME280;57712;48.752;11.348;2024-02-26T09:44:36;95973.72;;;8.23;100.00
70304;BME280;57712;48.752;11.348;2024-02-26T09:47:08;95975.81;;;8.19;100.00
70304;BME280;57712;48.752;11.348;2024-02-26T09:49:36;95968.84;;;8.18;100.00
70304;BME280;57712;48.752;11.348;2024-02-26T09:52:04;95973.69;;;7.88;100.00
70304;BME280;57712;48.752;11.348;2024-02-26T09:54:32;95968.38;;;7.59;100.00
70304;BME280;57712;48.752;11.348;2024-02-26T09:57:00;95959.44;;;7.84;100.00
70304;BME280;57712;48.752;11.348;2024-02-26T09:59:38;95962.56;;;7.95;100.00
70304;BME280;57712;48.752;11.348;2024-02-26T10:02:14;95958.28;;;8.07;100.00
70304;BME280;57712;48.752;11.348;2024-02-26T10:04:41;95955.16;;;8.30;100.00
70304;BME280;57712;48.752;11.348;2024-02-26T10:07:13;95956.41;;;8.17;100.00
70304;BME280;57712;48.752;11.348;2024-02-26T10:09:40;95961.88;;;8.17;100.00
70304;BME280;57712;48.752;11.348;2024-02-26T10:12:10;95965.41;;;8.04;100.00
70304;BME280;57712;48.752;11.348;2024-02-26T10:14:37;95960.34;;;8.16;100.00
70304;BME280;57712;48.752;11.348;2024-02-26T10:17:07;95948.19;;;7.95;100.00
70304;BME280;57712;48.752;11.348;2024-02-26T10:19:35;95949.84;;;8.27;100.00
70304;BME280;57712;48.752;11.348;2024-02-26T10:22:05;95955.16;;;8.30;100.00
70304;BME280;57712;48.752;11.348;2024-02-26T10:24:32;95956.47;;;8.38;100.00
70304;BME280;57712;48.752;11.348;2024-02-26T10:26:59;95949.06;;;8.39;100.00
70304;BME280;57712;48.752;11.348;2024-02-26T10:29:26;95957.63;;;8.50;100.00
70304;BME280;57712;48.752;11.348;2024-02-26T10:31:52;95955.88;;;8.56;100.00
70304;BME280;57712;48.752;11.348;2024-02-26T10:34:20;95955.94;;;8.31;100.00
70304;BME280;57712;48.752;11.348;2024-02-26T10:36:47;95957.19;;;8.74;100.00
70304;BME280;57712;48.752;11.348;2024-02-26T10:39:20;95951.63;;;8.99;100.00
70304;BME280;57712;48.752;11.348;2024-02-26T10:41:48;95943.63;;;8.83;100.00
70304;BME280;57712;48.752;11.348;2024-02-26T10:44:15;95956.50;;;8.60;100.00
70304;BME280;57712;48.752;11.348;2024-02-26T10:46:46;95947.75;;;8.87;100.00
70304;BME280;57712;48.752;11.348;2024-02-26T10:49:14;95949.53;;;9.34;100.00
70304;BME280;57712;48.752;11.348;2024-02-26T10:51:49;95953.38;;;9.46;100.00
70304;BME280;57712;48.752;11.348;2024-02-26T10:54:19;95958.63;;;9.71;100.00
70304;BME280;57712;48.752;11.348;2024-02-26T10:56:48;95968.13;;;9.98;100.00
70304;BME280;57712;48.752;11.348;2024-02-26T10:59:16;95958.44;;;10.15;100.00
70304;BME280;57712;48.752;11.348;2024-02-26T11:01:48;95962.06;;;10.03;100.00
70304;BME280;57712;48.752;11.348;2024-02-26T11:04:16;95960.91;;;11.05;100.00
70304;BME280;57712;48.752;11.348;2024-02-26T11:06:46;95965.03;;;10.73;100.00
70304;BME280;57712;48.752;11.348;2024-02-26T11:09:14;95969.91;;;10.78;100.00
70304;BME280;57712;48.752;11.348;2024-02-26T11:11:42;95969.44;;;11.07;100.00
70304;BME280;57712;48.752;11.348;2024-02-26T11:14:09;95977.47;;;11.19;100.00
70304;BME280;57712;48.752;11.348;2024-02-26T11:16:39;95973.94;;;11.37;100.00
70304;BME280;57712;48.752;11.348;2024-02-26T11:19:08;95973.72;;;11.59;98.19
70304;BME280;57712;48.752;11.348;2024-02-26T11:21:36;95977.91;;;11.78;99.34
70304;BME280;57712;48.752;11.348;2024-02-26T11:24:14;95981.19;;;11.49;100.00
70304;BME280;57712;48.752;11.348;2024-02-26T11:26:48;95988.44;;;12.13;94.91
70304;BME280;57712;48.752;11.348;2024-02-26T11:29:20;95990.69;;;11.91;97.70
70304;BME280;57712;48.752;11.348;2024-02-26T11:31:48;95996.44;;;11.41;99.60
70304;BME280;57712;48.752;11.348;2024-02-26T11:34:16;95997.41;;;11.20;100.00
70304;BME280;57712;48.752;11.348;2024-02-26T11:36:43;95992.22;;;11.31;100.00
70304;BME280;57712;48.752;11.348;2024-02-26T11:39:11;95995.41;;;11.30;100.00
70304;BME280;57712;48.752;11.348;2024-02-26T11:41:40;95989.09;;;11.56;100.00
70304;BME280;57712;48.752;11.348;2024-02-26T11:44:07;95984.44;;;11.90;95.70
70304;BME280;57712;48.752;11.348;2024-02-26T11:46:42;95992.69;;;12.38;92.71
70304;BME280;57712;48.752;11.348;2024-02-26T11:51:57;95983.44;;;11.60;96.54
70304;BME280;57712;48.752;11.348;2024-02-26T11:59:52;95968.00;;;11.72;90.88
70304;BME280;57712;48.752;11.348;2024-02-26T12:05:21;95968.91;;;12.35;92.43
70304;BME280;57712;48.752;11.348;2024-02-26T12:07:55;95963.31;;;12.53;93.60
70304;BME280;57712;48.752;11.348;2024-02-26T12:10:38;95965.66;;;12.22;92.78
70304;BME280;57712;48.752;11.348;2024-02-26T12:13:13;95959.25;;;12.39;88.64
70304;BME280;57712;48.752;11.348;2024-02-26T12:18:21;95965.81;;;13.99;82.05
70304;BME280;57712;48.752;11.348;2024-02-26T12:21:02;95972.69;;;13.89;79.97
70304;BME280;57712;48.752;11.348;2024-02-26T12:23:32;95977.91;;;13.86;78.75
70304;BME280;57712;48.752;11.348;2024-02-26T12:26:01;95966.84;;;13.66;80.10
70304;BME280;57712;48.752;11.348;2024-02-26T12:28:33;95964.19;;;13.57;79.33
70304;BME280;57712;48.752;11.348;2024-02-26T12:31:00;95963.84;;;13.84;76.79
70304;BME280;57712;48.752;11.348;2024-02-26T12:33:28;95963.41;;;13.71;78.39
70304;BME280;57712;48.752;11.348;2024-02-26T12:35:56;95973.28;;;13.48;80.65
70304;BME280;57712;48.752;11.348;2024-02-26T12:38:23;95973.97;;;13.93;79.12
70304;BME280;57712;48.752;11.348;2024-02-26T12:40:50;95972.50;;;13.63;78.57
70304;BME280;57712;48.752;11.348;2024-02-26T12:43:17;95965.81;;;13.19;82.09
70304;BME280;57712;48.752;11.348;2024-02-26T12:45:44;95981.66;;;13.24;89.04
70304;BME280;57712;48.752;11.348;2024-02-26T12:48:14;95983.34;;;13.22;89.83
70304;BME280;57712;48.752;11.348;2024-02-26T12:50:45;95989.47;;;12.63;91.08
70304;BME280;57712;48.752;11.348;2024-02-26T12:53:14;95987.00;;;12.65;88.76
70304;BME280;57712;48.752;11.348;2024-02-26T12:55:43;95977.53;;;12.66;92.07
70304;BME280;57712;48.752;11.348;2024-02-26T12:58:10;95975.13;;;12.21;90.14
70304;BME280;57712;48.752;11.348;2024-02-26T13:00:38;95961.91;;;12.34;88.88
70304;BME280;57712;48.752;11.348;2024-02-26T13:03:04;95967.13;;;12.70;95.64
70304;BME280;57712;48.752;11.348;2024-02-26T13:05:31;95971.94;;;12.37;92.74
70304;BME280;57712;48.752;11.348;2024-02-26T13:07:59;95980.69;;;12.50;94.44